Time;durP1;ratioP1;P1;durP2;ratioP2;P2;SDS_P1;SDS_P2;PMS_P1;PMS_P2;Temp;Humidity;BMP_temperature;BMP_pressure;BME280_temperature;BME280_humidity;BME280_pressure;Samples;Min_cycle;Max_cycle;Signal;HPM_P1;HPM_P2
2022/09/21 00:00:36;;;;;;;1.00;0.30;;;9.30;99.90;;;;;;5060316;28;20495;-77
2022/09/21 00:03:03;;;;;;;1.40;0.30;;;9.20;99.90;;;;;;5065126;28;20027;-77
2022/09/21 00:05:29;;;;;;;1.45;0.40;;;9.30;99.90;;;;;;5059695;28;20062;-77
2022/09/21 00:07:58;;;;;;;1.60;0.30;;;9.30;99.90;;;;;;5059368;28;20024;-78
2022/09/21 00:10:25;;;;;;;0.82;0.30;;;9.30;99.90;;;;;;5076127;28;20476;-76
2022/09/21 00:12:52;;;;;;;1.13;0.30;;;9.20;99.90;;;;;;5042262;28;20032;-76
2022/09/21 00:15:18;;;;;;;0.88;0.30;;;9.10;99.90;;;;;;5046469;28;20035;-77
2022/09/21 00:17:46;;;;;;;0.95;0.20;;;9.10;99.90;;;;;;5074799;28;20023;-76
2022/09/21 00:20:13;;;;;;;1.02;0.30;;;9.10;99.90;;;;;;5077432;28;20395;-76
2022/09/21 00:22:40;;;;;;;1.48;0.32;;;9.10;99.90;;;;;;5088480;28;20032;-76
2022/09/21 00:25:07;;;;;;;1.02;0.20;;;9.10;99.90;;;;;;5058918;28;20031;-77
2022/09/21 00:27:33;;;;;;;0.55;0.25;;;9.00;99.90;;;;;;5061385;28;20035;-77
2022/09/21 00:30:02;;;;;;;0.45;0.20;;;8.80;99.90;;;;;;5044092;28;20032;-77
2022/09/21 00:32:30;;;;;;;0.70;0.30;;;8.80;99.90;;;;;;5066899;28;20036;-78
2022/09/21 00:34:57;;;;;;;0.70;0.32;;;8.90;99.90;;;;;;5077341;28;20357;-77
2022/09/21 00:37:24;;;;;;;1.02;0.25;;;8.80;99.90;;;;;;5059454;28;20032;-77
2022/09/21 00:39:49;;;;;;;1.17;0.30;;;8.70;99.90;;;;;;5059639;28;20430;-77
2022/09/21 00:42:22;;;;;;;1.42;0.32;;;8.70;99.90;;;;;;5074100;28;20039;-75
2022/09/21 00:44:48;;;;;;;0.88;0.30;;;8.70;99.90;;;;;;5065578;28;20032;-78
2022/09/21 00:47:17;;;;;;;0.80;0.30;;;8.60;99.90;;;;;;5065747;28;20028;-77
2022/09/21 00:49:48;;;;;;;1.23;0.30;;;8.50;99.90;;;;;;5085604;28;20025;-76
2022/09/21 00:52:16;;;;;;;1.27;0.30;;;8.50;99.90;;;;;;5075128;28;20117;-76
2022/09/21 00:55:01;;;;;;;0.52;0.20;;;8.40;99.90;;;;;;5092946;28;20059;-78
2022/09/21 00:57:31;;;;;;;1.05;0.30;;;8.40;99.90;;;;;;5055437;28;20025;-79
2022/09/21 01:00:00;;;;;;;1.38;0.22;;;8.40;99.90;;;;;;5041262;28;20052;-77
2022/09/21 01:02:27;;;;;;;0.93;0.30;;;8.40;99.90;;;;;;5077960;28;20048;-77
2022/09/21 01:04:53;;;;;;;0.70;0.30;;;8.50;99.90;;;;;;5077663;28;20046;-77
2022/09/21 01:07:22;;;;;;;0.93;0.25;;;8.50;99.90;;;;;;5076303;28;20032;-77
2022/09/21 01:09:52;;;;;;;1.55;0.35;;;8.20;99.90;;;;;;5041813;28;20117;-76
2022/09/21 01:12:34;;;;;;;2.50;0.30;;;8.10;99.90;;;;;;5047025;28;20473;-77
2022/09/21 01:15:23;;;;;;;1.30;0.40;;;8.10;99.90;;;;;;5066279;28;20036;-76
2022/09/21 01:17:59;;;;;;;1.03;0.30;;;8.10;99.90;;;;;;5055778;28;20468;-77
2022/09/21 01:20:51;;;;;;;1.05;0.50;;;8.10;99.90;;;;;;5042121;28;20032;-76
2022/09/21 01:23:38;;;;;;;2.38;0.40;;;8.20;99.90;;;;;;5068823;28;20039;-77
2022/09/21 01:26:37;;;;;;;0.95;0.32;;;8.20;99.90;;;;;;5068329;28;20131;-75
2022/09/21 01:29:33;;;;;;;1.02;0.30;;;8.10;99.90;;;;;;5048951;28;20503;-77
2022/09/21 01:32:14;;;;;;;0.75;0.30;;;8.10;99.90;;;;;;5091818;28;20028;-77
2022/09/21 01:34:45;;;;;;;1.67;0.52;;;8.00;99.90;;;;;;5079149;28;20020;-76
2022/09/21 01:37:17;;;;;;;1.35;0.30;;;8.00;99.90;;;;;;5064405;28;20056;-76
2022/09/21 01:39:47;;;;;;;0.68;0.30;;;7.90;99.90;;;;;;5092774;28;20062;-77
2022/09/21 01:42:15;;;;;;;1.02;0.40;;;7.90;99.90;;;;;;5083323;28;20426;-77
2022/09/21 01:44:42;;;;;;;0.60;0.30;;;7.90;99.90;;;;;;5054026;28;20082;-77
2022/09/21 01:47:13;;;;;;;0.80;0.30;;;7.80;99.90;;;;;;5079115;28;20025;-77
2022/09/21 01:49:47;;;;;;;1.10;0.35;;;7.90;99.90;;;;;;5061596;28;20065;-77
2022/09/21 01:52:20;;;;;;;0.93;0.35;;;7.80;99.90;;;;;;5077609;28;20044;-77
2022/09/21 01:54:53;;;;;;;0.90;0.40;;;7.90;99.90;;;;;;5077859;28;20533;-77
2022/09/21 01:57:35;;;;;;;0.70;0.40;;;7.90;99.90;;;;;;5077117;28;20649;-77
2022/09/21 02:00:04;;;;;;;1.77;0.38;;;7.80;99.90;;;;;;5064558;28;20590;-77
2022/09/21 02:02:50;;;;;;;1.65;0.20;;;7.70;99.90;;;;;;5076098;28;20040;-77
2022/09/21 02:05:19;;;;;;;2.20;0.40;;;7.70;99.90;;;;;;5063216;28;20597;-77
2022/09/21 02:07:46;;;;;;;1.55;0.40;;;7.70;99.90;;;;;;5068246;28;20107;-77
2022/09/21 02:10:35;;;;;;;1.05;0.40;;;7.60;99.90;;;;;;5075429;28;20403;-78
2022/09/21 02:13:05;;;;;;;0.93;0.30;;;7.60;99.90;;;;;;5046836;28;20089;-77
2022/09/21 02:15:49;;;;;;;0.90;0.32;;;7.60;99.90;;;;;;5079191;28;20024;-78
2022/09/21 02:18:37;;;;;;;0.75;0.30;;;7.70;99.90;;;;;;5079208;28;20027;-77
2022/09/21 02:21:12;;;;;;;0.85;0.30;;;7.60;99.90;;;;;;5068033;28;20032;-77
2022/09/21 02:23:42;;;;;;;0.90;0.30;;;7.50;99.90;;;;;;5050037;28;20069;-77
2022/09/21 02:26:34;;;;;;;1.48;0.30;;;7.50;99.90;;;;;;5079336;28;20028;-76
2022/09/21 02:29:17;;;;;;;1.52;0.30;;;7.40;99.90;;;;;;5079881;28;20040;-77
2022/09/21 02:31:43;;;;;;;1.08;0.40;;;7.40;99.90;;;;;;5075172;28;20032;-77
2022/09/21 02:34:32;;;;;;;1.52;0.40;;;7.30;99.90;;;;;;5062132;28;20028;-78
2022/09/21 02:37:31;;;;;;;0.70;0.30;;;7.30;99.90;;;;;;5080767;28;20073;-76
2022/09/21 02:40:14;;;;;;;2.08;0.38;;;7.30;99.90;;;;;;5051141;28;20040;-76
2022/09/21 02:42:43;;;;;;;1.75;0.32;;;7.20;99.90;;;;;;5082360;28;20093;-77
2022/09/21 02:45:17;;;;;;;1.40;0.30;;;7.20;99.90;;;;;;5052005;28;20028;-76
2022/09/21 02:47:51;;;;;;;1.88;0.40;;;7.20;99.90;;;;;;5076151;28;20094;-77
2022/09/21 02:50:40;;;;;;;1.77;0.40;;;7.20;99.90;;;;;;5079021;28;20054;-76
2022/09/21 02:53:08;;;;;;;1.05;0.40;;;7.20;99.90;;;;;;5061353;28;20032;-77
2022/09/21 02:55:34;;;;;;;2.20;0.40;;;7.00;99.90;;;;;;5078051;28;20086;-78
2022/09/21 02:58:04;;;;;;;1.65;0.30;;;6.90;99.90;;;;;;5077746;28;20037;-76
2022/09/21 03:00:30;;;;;;;3.00;0.40;;;7.00;99.90;;;;;;5047020;28;20036;-77
2022/09/21 03:02:56;;;;;;;1.40;0.45;;;7.00;99.90;;;;;;5078880;28;20040;-77
2022/09/21 03:05:22;;;;;;;0.90;0.40;;;7.10;99.90;;;;;;5064026;28;20040;-78
2022/09/21 03:07:47;;;;;;;1.30;0.40;;;7.10;99.90;;;;;;5076941;28;20115;-77
2022/09/21 03:10:13;;;;;;;1.65;0.50;;;7.10;99.90;;;;;;5077634;28;20514;-77
2022/09/21 03:12:39;;;;;;;1.15;0.40;;;7.00;99.90;;;;;;5060058;28;20043;-77
2022/09/21 03:15:05;;;;;;;0.80;0.40;;;7.00;99.90;;;;;;5046940;28;20028;-77
2022/09/21 03:17:30;;;;;;;1.17;0.40;;;7.00;99.90;;;;;;5052213;28;20510;-77
2022/09/21 03:19:56;;;;;;;1.85;0.40;;;6.80;99.90;;;;;;5080013;28;20044;-76
2022/09/21 03:22:23;;;;;;;1.40;0.50;;;6.80;99.90;;;;;;5047981;28;20024;-76
2022/09/21 03:24:49;;;;;;;1.75;0.40;;;6.80;99.90;;;;;;5089342;28;20020;-77
2022/09/21 03:27:17;;;;;;;1.25;0.40;;;6.80;99.90;;;;;;5075242;28;20020;-77
2022/09/21 03:29:43;;;;;;;2.90;0.50;;;6.70;99.90;;;;;;5076366;28;20555;-76
2022/09/21 03:32:09;;;;;;;1.73;0.43;;;6.70;99.90;;;;;;5051493;28;20787;-76
2022/09/21 03:34:35;;;;;;;1.88;0.40;;;6.70;99.90;;;;;;5063501;28;20028;-78
2022/09/21 03:37:03;;;;;;;1.38;0.47;;;6.70;99.90;;;;;;5061565;28;20043;-77
2022/09/21 03:39:29;;;;;;;1.40;0.40;;;6.60;99.90;;;;;;5088564;28;20029;-78
2022/09/21 03:41:55;;;;;;;1.50;0.43;;;6.70;99.90;;;;;;5075942;28;20059;-76
2022/09/21 03:44:25;;;;;;;1.23;0.40;;;6.70;99.90;;;;;;5066498;28;20067;-77
2022/09/21 03:46:51;;;;;;;2.67;0.40;;;6.70;99.90;;;;;;5077122;28;20028;-78
2022/09/21 03:49:17;;;;;;;2.95;0.60;;;6.60;99.90;;;;;;5076417;28;20073;-77
2022/09/21 03:51:44;;;;;;;1.90;0.40;;;6.50;99.90;;;;;;5061700;28;20430;-77
2022/09/21 03:54:09;;;;;;;1.58;0.50;;;6.50;99.90;;;;;;5078285;28;20017;-77
2022/09/21 03:56:36;;;;;;;1.10;0.40;;;6.50;99.90;;;;;;5060603;28;20025;-76
2022/09/21 03:59:02;;;;;;;2.35;0.60;;;6.50;99.90;;;;;;5075518;28;20468;-76
2022/09/21 04:01:28;;;;;;;1.15;0.50;;;6.50;99.90;;;;;;5064612;28;20043;-77
2022/09/21 04:03:53;;;;;;;1.00;0.40;;;6.50;99.90;;;;;;5077019;28;20383;-77
2022/09/21 04:06:19;;;;;;;1.08;0.43;;;6.40;99.90;;;;;;5074171;28;20440;-77
2022/09/21 04:08:45;;;;;;;1.60;0.50;;;6.40;99.90;;;;;;5075872;28;20534;-77
2022/09/21 04:11:15;;;;;;;2.40;0.70;;;6.30;99.90;;;;;;5050506;28;20021;-76
2022/09/21 04:13:41;;;;;;;1.48;0.40;;;6.30;99.90;;;;;;5074468;28;20044;-76
2022/09/21 04:16:09;;;;;;;1.88;0.50;;;6.20;99.90;;;;;;5058568;28;20038;-78
2022/09/21 04:18:36;;;;;;;4.85;0.50;;;6.30;99.90;;;;;;5087727;28;20031;-77
2022/09/21 04:21:03;;;;;;;1.75;0.43;;;6.20;99.90;;;;;;5067472;28;20372;-76
2022/09/21 04:23:28;;;;;;;1.75;0.50;;;6.30;99.90;;;;;;5074388;28;20048;-76
2022/09/21 04:25:54;;;;;;;1.25;0.50;;;6.20;99.90;;;;;;5063542;28;20023;-76
2022/09/21 04:28:21;;;;;;;1.02;0.40;;;6.20;99.90;;;;;;5077458;28;20035;-77
2022/09/21 04:30:47;;;;;;;1.65;0.60;;;6.20;99.90;;;;;;5063385;28;20414;-77
2022/09/21 04:33:13;;;;;;;1.90;0.40;;;6.20;99.90;;;;;;5062982;28;20111;-77
2022/09/21 04:35:38;;;;;;;1.73;0.50;;;6.10;99.90;;;;;;5080105;28;20021;-76
2022/09/21 04:38:04;;;;;;;2.28;0.55;;;6.10;99.90;;;;;;5088356;28;20494;-76
2022/09/21 04:40:30;;;;;;;1.25;0.45;;;6.00;99.90;;;;;;5062270;28;20028;-77
2022/09/21 04:42:55;;;;;;;1.20;0.50;;;6.00;99.90;;;;;;5066399;28;20047;-77
2022/09/21 04:45:22;;;;;;;1.70;0.47;;;6.10;99.90;;;;;;5067676;28;20532;-76
2022/09/21 04:47:48;;;;;;;2.20;0.50;;;6.20;99.90;;;;;;5086808;28;20024;-77
2022/09/21 04:50:14;;;;;;;1.67;0.60;;;6.10;99.90;;;;;;5075102;28;20078;-76
2022/09/21 04:52:40;;;;;;;1.75;0.50;;;6.00;99.90;;;;;;5048059;28;20039;-77
2022/09/21 04:55:06;;;;;;;1.30;0.50;;;5.90;99.90;;;;;;5059367;28;20036;-76
2022/09/21 04:57:33;;;;;;;1.50;0.50;;;5.90;99.90;;;;;;5067478;28;20377;-77
2022/09/21 04:59:58;;;;;;;2.78;0.43;;;6.00;99.90;;;;;;5086785;28;20028;-76
2022/09/21 05:02:24;;;;;;;1.40;0.47;;;6.00;99.90;;;;;;5049753;28;20040;-76
2022/09/21 05:04:50;;;;;;;6.72;0.60;;;6.00;99.90;;;;;;5063302;28;20429;-77
2022/09/21 05:07:15;;;;;;;1.50;0.50;;;6.00;99.90;;;;;;5040085;28;20431;-77
2022/09/21 05:12:25;;;;;;;1.45;0.43;;;5.90;99.90;;;;;;5065880;28;20035;-76
2022/09/21 05:14:51;;;;;;;2.15;0.50;;;5.90;99.90;;;;;;5066818;28;20028;-76
2022/09/21 05:17:17;;;;;;;1.10;0.50;;;5.90;99.90;;;;;;5078218;28;20403;-77
2022/09/21 05:19:42;;;;;;;1.08;0.40;;;6.00;99.90;;;;;;5062495;28;20036;-78
2022/09/21 05:22:08;;;;;;;2.75;0.80;;;6.10;99.90;;;;;;5041903;28;20047;-78
2022/09/21 05:24:34;;;;;;;2.47;0.40;;;6.00;99.90;;;;;;5064250;28;20047;-78
2022/09/21 05:27:00;;;;;;;1.83;0.65;;;5.90;99.90;;;;;;5089300;28;20017;-76
2022/09/21 05:29:26;;;;;;;2.88;0.60;;;5.80;99.90;;;;;;5042377;28;20446;-78
2022/09/21 05:32:14;;;;;;;0.90;0.40;;;5.70;99.90;;;;;;5066660;28;20028;-76
2022/09/21 05:34:52;;;;;;;1.92;0.57;;;5.70;99.90;;;;;;5074877;28;20032;-77
2022/09/21 05:37:43;;;;;;;1.23;0.43;;;5.80;99.90;;;;;;5053890;28;20032;-77
2022/09/21 05:40:11;;;;;;;1.48;0.45;;;5.80;99.90;;;;;;5063269;28;20028;-77
2022/09/21 05:42:37;;;;;;;1.35;0.40;;;5.80;99.90;;;;;;5044144;28;20415;-77
2022/09/21 05:45:03;;;;;;;1.90;0.60;;;5.70;99.90;;;;;;5051264;28;20167;-77
2022/09/21 05:47:46;;;;;;;1.17;0.40;;;5.80;99.90;;;;;;5074981;28;20020;-78
2022/09/21 05:50:32;;;;;;;1.73;0.60;;;5.80;99.90;;;;;;5076007;28;20472;-76
2022/09/21 05:53:07;;;;;;;1.63;0.40;;;5.90;99.90;;;;;;5084919;28;20050;-77
2022/09/21 05:55:50;;;;;;;1.60;0.50;;;6.00;99.90;;;;;;5050016;28;20032;-80
2022/09/21 05:58:28;;;;;;;1.55;0.47;;;6.00;99.90;;;;;;5060515;28;20020;-78
2022/09/21 06:00:58;;;;;;;1.35;0.40;;;6.00;99.90;;;;;;5075371;28;20074;-76
2022/09/21 06:03:29;;;;;;;1.67;0.50;;;6.00;99.90;;;;;;5052998;28;20040;-76
2022/09/21 06:05:56;;;;;;;1.48;0.40;;;6.00;99.90;;;;;;5061990;28;20029;-76
2022/09/21 06:08:22;;;;;;;1.10;0.50;;;6.20;99.90;;;;;;5091780;28;20029;-78
2022/09/21 06:10:48;;;;;;;2.05;0.50;;;6.50;99.90;;;;;;5087633;28;20032;-78
2022/09/21 06:13:14;;;;;;;1.13;0.40;;;6.50;99.90;;;;;;5090984;28;20032;-77
2022/09/21 06:15:41;;;;;;;1.45;0.50;;;6.50;99.90;;;;;;5048765;28;20028;-77
2022/09/21 06:18:07;;;;;;;1.65;0.50;;;6.40;99.90;;;;;;5070037;28;20085;-77
2022/09/21 06:20:33;;;;;;;4.78;0.55;;;6.40;99.90;;;;;;5092414;28;20032;-76
2022/09/21 06:23:04;;;;;;;1.50;0.50;;;6.40;99.90;;;;;;5088739;28;20438;-77
2022/09/21 06:25:30;;;;;;;3.15;0.50;;;6.40;99.90;;;;;;5060251;28;20032;-76
2022/09/21 06:28:01;;;;;;;1.15;0.45;;;6.70;99.90;;;;;;5070555;28;20428;-78
2022/09/21 06:30:27;;;;;;;1.77;0.50;;;6.70;99.90;;;;;;5076572;28;20032;-77
2022/09/21 06:32:53;;;;;;;1.27;0.50;;;6.80;99.90;;;;;;5078750;28;20016;-76
2022/09/21 06:35:18;;;;;;;1.30;0.40;;;6.80;99.90;;;;;;5061013;28;20382;-77
2022/09/21 06:37:44;;;;;;;1.20;0.50;;;6.90;99.90;;;;;;5044137;28;20460;-76
2022/09/21 06:40:10;;;;;;;1.67;0.55;;;7.00;99.90;;;;;;5046708;28;20034;-76
2022/09/21 06:42:35;;;;;;;3.42;0.57;;;7.10;99.90;;;;;;5062920;28;20047;-77
2022/09/21 06:45:02;;;;;;;3.03;0.60;;;7.20;99.90;;;;;;5068733;28;20037;-76
2022/09/21 06:47:27;;;;;;;2.38;0.60;;;7.40;99.90;;;;;;5062252;28;20063;-76
2022/09/21 06:49:53;;;;;;;2.17;0.70;;;7.50;99.90;;;;;;5049427;28;20510;-77
2022/09/21 06:52:19;;;;;;;4.32;0.70;;;7.60;99.90;;;;;;5065177;28;20511;-77
2022/09/21 06:54:44;;;;;;;1.48;0.70;;;7.80;99.90;;;;;;5046259;28;20028;-78
2022/09/21 06:57:10;;;;;;;4.10;0.75;;;7.90;99.90;;;;;;5068441;28;20438;-77
2022/09/21 06:59:36;;;;;;;3.90;0.60;;;8.10;99.90;;;;;;5051557;28;20021;-77
2022/09/21 07:02:02;;;;;;;1.90;0.90;;;8.20;99.90;;;;;;5064018;28;20073;-78
2022/09/21 07:04:28;;;;;;;1.95;0.55;;;8.40;99.90;;;;;;5043485;28;20058;-77
2022/09/21 07:06:54;;;;;;;3.75;0.75;;;8.40;99.90;;;;;;5061462;28;20111;-77
2022/09/21 07:09:20;;;;;;;2.67;0.60;;;8.50;99.90;;;;;;5050289;28;20426;-77
2022/09/21 07:11:46;;;;;;;3.17;0.60;;;8.60;99.90;;;;;;5051576;28;20040;-77
2022/09/21 07:14:13;;;;;;;1.45;0.50;;;8.70;99.90;;;;;;5066814;28;20165;-78
2022/09/21 07:16:39;;;;;;;1.42;0.50;;;9.00;99.90;;;;;;5078031;28;20466;-78
2022/09/21 07:19:05;;;;;;;1.27;0.50;;;9.20;99.90;;;;;;5058910;28;20115;-78
2022/09/21 07:21:31;;;;;;;1.88;0.60;;;9.40;99.90;;;;;;5069305;28;20170;-77
2022/09/21 07:24:00;;;;;;;3.03;0.70;;;9.60;99.90;;;;;;5068051;28;20067;-78
2022/09/21 07:26:27;;;;;;;2.03;0.90;;;9.70;99.90;;;;;;5065533;28;20032;-77
2022/09/21 07:28:54;;;;;;;2.60;0.60;;;9.80;99.90;;;;;;5075194;28;20039;-77
2022/09/21 07:31:19;;;;;;;2.83;0.95;;;10.10;99.90;;;;;;5043590;28;20081;-77
2022/09/21 07:33:48;;;;;;;2.60;1.00;;;10.20;99.90;;;;;;5062943;28;20040;-78
2022/09/21 07:36:15;;;;;;;2.35;0.70;;;10.30;99.90;;;;;;5076944;28;20467;-80
2022/09/21 07:38:43;;;;;;;2.90;0.60;;;10.50;99.90;;;;;;5075779;28;20036;-78
2022/09/21 07:41:11;;;;;;;1.00;0.47;;;10.50;99.90;;;;;;5076616;28;20024;-77
2022/09/21 07:43:40;;;;;;;2.67;0.50;;;10.70;99.90;;;;;;5078759;28;20428;-79
2022/09/21 07:46:14;;;;;;;1.80;0.50;;;10.80;99.90;;;;;;5076189;28;20028;-79
2022/09/21 07:48:41;;;;;;;3.63;0.65;;;11.00;99.90;;;;;;5074003;28;20491;-78
2022/09/21 07:51:12;;;;;;;2.78;0.50;;;11.10;99.90;;;;;;5075358;28;20031;-77
2022/09/21 07:53:40;;;;;;;3.08;0.60;;;11.20;99.90;;;;;;5059600;28;20025;-78
2022/09/21 07:56:12;;;;;;;1.98;0.40;;;11.60;99.90;;;;;;5068950;28;20056;-77
2022/09/21 08:01:24;;;;;;;2.30;0.63;;;11.90;99.90;;;;;;5079856;28;20117;-78
2022/09/21 08:03:52;;;;;;;1.48;0.50;;;12.10;99.90;;;;;;5061200;28;20043;-78
2022/09/21 08:06:18;;;;;;;2.15;0.47;;;12.10;99.90;;;;;;5044144;28;20372;-78
2022/09/21 08:08:46;;;;;;;1.70;0.40;;;12.30;99.90;;;;;;5059327;28;20035;-78
2022/09/21 08:11:13;;;;;;;1.77;0.43;;;12.30;99.90;;;;;;5067005;28;20067;-78
2022/09/21 08:13:38;;;;;;;2.83;0.40;;;12.60;99.90;;;;;;5044950;28;20468;-80
2022/09/21 08:16:04;;;;;;;1.63;0.38;;;12.80;99.90;;;;;;5076609;28;20097;-78
2022/09/21 08:18:30;;;;;;;3.10;0.32;;;12.80;99.90;;;;;;5072881;28;20078;-78
2022/09/21 08:20:58;;;;;;;1.45;0.50;;;13.00;99.90;;;;;;5044532;28;20490;-79
2022/09/21 08:23:25;;;;;;;1.98;0.40;;;13.00;99.90;;;;;;5088185;28;20063;-79
2022/09/21 08:25:51;;;;;;;2.58;0.57;;;13.20;99.90;;;;;;5049551;28;20024;-79
2022/09/21 08:28:17;;;;;;;5.18;1.15;;;13.50;99.90;;;;;;5078868;28;20048;-78
2022/09/21 08:30:43;;;;;;;2.85;0.60;;;13.30;99.90;;;;;;5042065;28;20125;-78
2022/09/21 08:33:09;;;;;;;3.90;0.40;;;13.30;99.90;;;;;;5058841;28;20028;-78
2022/09/21 08:35:35;;;;;;;2.97;0.52;;;13.60;99.90;;;;;;5062876;28;20451;-81
2022/09/21 08:38:01;;;;;;;3.47;0.50;;;13.90;99.90;;;;;;5073169;28;20236;-80
2022/09/21 08:40:28;;;;;;;1.45;0.40;;;14.10;99.90;;;;;;5072547;28;20094;-81
2022/09/21 08:42:53;;;;;;;1.58;0.30;;;13.80;99.90;;;;;;5062633;28;20060;-81
2022/09/21 08:45:21;;;;;;;1.92;0.25;;;14.00;99.90;;;;;;5060230;28;20085;-80
2022/09/21 08:47:52;;;;;;;2.47;0.30;;;14.30;99.90;;;;;;5048963;28;20466;-81
2022/09/21 08:50:21;;;;;;;1.23;0.20;;;14.40;99.90;;;;;;5075228;28;22228;-81
2022/09/21 08:52:49;;;;;;;1.67;0.20;;;14.40;99.90;;;;;;5055710;28;20127;-79
2022/09/21 08:55:19;;;;;;;0.60;0.17;;;14.50;99.90;;;;;;5076789;28;20036;-80
2022/09/21 08:57:45;;;;;;;0.70;0.10;;;14.80;99.90;;;;;;5067575;28;20050;-81
2022/09/21 09:00:17;;;;;;;2.45;0.20;;;14.70;99.90;;;;;;5089841;28;20028;-79
2022/09/21 09:03:23;;;;;;;2.38;0.43;;;14.90;99.90;;;;;;5059131;28;20399;-81
2022/09/21 09:06:07;;;;;;;3.40;0.20;;;15.00;99.90;;;;;;5040890;28;20059;-79
2022/09/21 09:08:51;;;;;;;2.13;0.20;;;15.00;99.90;;;;;;5076198;28;20041;-81
2022/09/21 09:11:42;;;;;;;1.05;0.10;;;15.20;99.90;;;;;;5059415;28;20035;-81
2022/09/21 09:14:31;;;;;;;5.72;0.20;;;15.30;99.90;;;;;;5075356;28;20075;-80
2022/09/21 09:17:29;;;;;;;1.65;0.10;;;15.00;99.90;;;;;;5070518;28;20032;-79
2022/09/21 09:20:17;;;;;;;2.58;0.20;;;15.10;99.90;;;;;;5055236;28;20024;-80
2022/09/21 09:22:59;;;;;;;2.50;0.10;;;14.90;99.90;;;;;;5071805;28;20029;-80
2022/09/21 09:25:24;;;;;;;1.67;0.10;;;15.00;99.90;;;;;;5072265;28;20032;-80
2022/09/21 09:27:54;;;;;;;0.98;0.10;;;15.50;99.90;;;;;;5046672;28;20036;-79
2022/09/21 09:30:24;;;;;;;1.70;0.20;;;15.80;99.90;;;;;;5077959;28;20032;-82
2022/09/21 09:32:59;;;;;;;2.08;0.13;;;16.00;99.90;;;;;;5074217;28;20020;-79
2022/09/21 09:35:42;;;;;;;2.28;0.10;;;15.90;99.90;;;;;;5061578;28;20028;-81
2022/09/21 09:38:12;;;;;;;2.15;0.10;;;15.60;99.90;;;;;;5075272;28;20024;-81
2022/09/21 09:40:41;;;;;;;0.85;0.10;;;16.00;99.90;;;;;;5066019;28;20029;-81
2022/09/21 09:43:30;;;;;;;2.03;0.10;;;16.30;99.90;;;;;;5080185;28;20045;-80
2022/09/21 09:46:17;;;;;;;2.22;0.15;;;16.00;99.90;;;;;;5067946;28;20056;-81
2022/09/21 09:49:15;;;;;;;1.95;0.20;;;15.50;99.90;;;;;;5089592;28;20107;-81
2022/09/21 09:51:41;;;;;;;1.55;0.10;;;16.10;99.90;;;;;;5079712;28;20024;-80
2022/09/21 09:54:13;;;;;;;1.52;0.10;;;16.30;99.90;;;;;;5092083;28;20104;-81
2022/09/21 09:56:40;;;;;;;0.63;0.00;;;16.50;99.90;;;;;;5089577;28;20384;-80
2022/09/21 09:59:30;;;;;;;1.30;0.10;;;16.70;99.90;;;;;;5047900;28;20068;-79
2022/09/21 10:02:03;;;;;;;1.80;0.10;;;16.90;99.90;;;;;;5049685;28;20045;-81
2022/09/21 10:04:29;;;;;;;2.28;0.10;;;17.20;99.90;;;;;;5085119;28;20427;-80
2022/09/21 10:06:55;;;;;;;2.67;0.10;;;17.30;99.90;;;;;;5060466;28;20039;-81
2022/09/21 10:09:32;;;;;;;3.00;0.10;;;16.60;99.90;;;;;;5077433;28;20041;-80
2022/09/21 10:12:13;;;;;;;2.20;0.17;;;16.10;99.90;;;;;;5080311;28;20058;-82
2022/09/21 10:14:48;;;;;;;1.70;0.20;;;16.30;99.90;;;;;;5078700;28;20479;-80
2022/09/21 10:17:17;;;;;;;2.47;0.20;;;16.50;99.90;;;;;;5070517;28;20475;-81
2022/09/21 10:19:43;;;;;;;1.40;0.08;;;16.80;99.90;;;;;;5088197;28;20052;-81
2022/09/21 10:22:16;;;;;;;1.65;0.00;;;17.20;99.90;;;;;;5077201;28;20032;-81
2022/09/21 10:24:50;;;;;;;1.35;0.13;;;17.30;99.90;;;;;;5081537;28;20555;-80
2022/09/21 10:27:23;;;;;;;1.75;0.10;;;17.30;99.90;;;;;;5051835;28;20024;-81
2022/09/21 10:29:49;;;;;;;1.00;0.10;;;17.40;99.90;;;;;;5062530;28;20039;-80
2022/09/21 10:32:17;;;;;;;3.72;0.10;;;17.20;99.90;;;;;;5088453;28;20024;-79
2022/09/21 10:35:06;;;;;;;1.65;0.40;;;16.60;99.90;;;;;;5071962;28;20144;-80
2022/09/21 10:37:40;;;;;;;3.63;0.20;;;17.10;99.90;;;;;;5055759;28;20142;-79
2022/09/21 10:40:21;;;;;;;1.35;0.10;;;17.60;99.90;;;;;;5045093;28;20042;-82
2022/09/21 10:42:49;;;;;;;2.33;0.10;;;17.80;99.90;;;;;;5059209;28;20349;-81
2022/09/21 10:45:20;;;;;;;2.45;0.20;;;17.60;99.90;;;;;;5061467;28;20020;-80
2022/09/21 10:48:06;;;;;;;1.98;0.20;;;17.50;99.90;;;;;;5063530;28;20460;-81
2022/09/21 10:50:41;;;;;;;0.57;0.05;;;17.90;99.90;;;;;;5090840;28;20043;-82
2022/09/21 10:53:18;;;;;;;3.47;0.25;;;17.70;99.90;;;;;;5089123;28;20040;-88
2022/09/21 10:56:01;;;;;;;1.67;0.10;;;17.30;99.90;;;;;;5063909;28;20025;-82
2022/09/21 10:58:27;;;;;;;1.73;0.10;;;17.00;99.90;;;;;;5075362;28;20085;-81
2022/09/21 11:00:54;;;;;;;1.17;0.10;;;17.10;99.90;;;;;;5047819;28;20028;-80
2022/09/21 11:03:29;;;;;;;1.20;0.10;;;16.90;99.90;;;;;;5090951;28;20040;-80
2022/09/21 11:06:04;;;;;;;0.75;0.10;;;17.40;99.90;;;;;;5076057;28;20029;-81
2022/09/21 11:08:37;;;;;;;1.38;0.10;;;17.60;99.90;;;;;;5064951;28;20028;-80
2022/09/21 11:11:27;;;;;;;4.15;0.15;;;17.20;99.90;;;;;;5077719;28;20032;-81
2022/09/21 11:14:02;;;;;;;1.10;0.10;;;17.40;99.90;;;;;;5073716;28;20055;-82
2022/09/21 11:16:37;;;;;;;1.45;0.10;;;17.30;99.90;;;;;;5041404;28;20040;-80
2022/09/21 11:19:27;;;;;;;1.90;0.10;;;17.60;99.90;;;;;;5076661;28;20494;-81
2022/09/21 11:21:56;;;;;;;1.70;0.10;;;17.50;99.90;;;;;;5044192;28;20072;-82
2022/09/21 11:24:50;;;;;;;1.33;0.10;;;17.90;99.90;;;;;;5077210;28;20050;-82
2022/09/21 11:27:43;;;;;;;3.00;0.10;;;17.30;99.90;;;;;;5077917;28;20024;-81
2022/09/21 11:30:17;;;;;;;1.00;0.10;;;17.40;99.90;;;;;;5065466;28;20031;-82
2022/09/21 11:33:04;;;;;;;1.00;0.10;;;17.90;99.90;;;;;;5060899;28;20036;-81
2022/09/21 11:35:35;;;;;;;1.55;0.10;;;17.20;99.90;;;;;;5078181;28;20071;-80
2022/09/21 11:38:12;;;;;;;0.90;0.10;;;17.40;99.90;;;;;;5065615;28;20037;-80
2022/09/21 11:40:53;;;;;;;2.08;0.10;;;18.30;99.90;;;;;;5065625;28;20036;-81
2022/09/21 11:43:31;;;;;;;1.10;0.10;;;17.60;99.90;;;;;;5078218;28;20048;-82
2022/09/21 11:46:21;;;;;;;2.28;0.10;;;16.80;99.90;;;;;;5074026;28;20082;-81
2022/09/21 11:49:13;;;;;;;2.17;0.10;;;16.50;99.90;;;;;;5064033;28;20036;-80
2022/09/21 11:51:51;;;;;;;3.03;0.10;;;16.60;99.90;;;;;;5067143;28;20116;-80
2022/09/21 11:54:29;;;;;;;3.28;0.10;;;16.40;99.90;;;;;;5061159;28;20495;-80
2022/09/21 11:57:21;;;;;;;1.65;0.10;;;16.30;99.90;;;;;;5064028;28;20391;-81
2022/09/21 11:59:59;;;;;;;0.55;0.00;;;16.20;99.90;;;;;;5076682;28;20037;-79
2022/09/21 12:02:49;;;;;;;1.95;0.20;;;16.20;99.90;;;;;;5056440;28;20187;-81
2022/09/21 12:05:44;;;;;;;0.73;0.00;;;16.20;99.90;;;;;;5073743;28;20036;-81
2022/09/21 12:08:33;;;;;;;1.10;0.05;;;16.60;99.90;;;;;;5076011;28;20048;-79
2022/09/21 12:11:05;;;;;;;1.38;0.08;;;16.90;99.90;;;;;;5068153;28;20111;-79
2022/09/21 12:13:40;;;;;;;0.95;0.10;;;16.50;99.90;;;;;;5074989;28;20028;-81
2022/09/21 12:16:22;;;;;;;2.70;0.10;;;16.40;99.90;;;;;;5075233;28;20063;-80
2022/09/21 12:19:03;;;;;;;0.75;0.00;;;16.50;99.90;;;;;;5060300;28;20123;-80
2022/09/21 12:21:44;;;;;;;1.45;0.10;;;16.60;99.90;;;;;;5078483;28;20059;-80
2022/09/21 12:24:21;;;;;;;1.48;0.10;;;16.50;99.90;;;;;;5078181;28;20052;-80
2022/09/21 12:26:54;;;;;;;1.27;0.03;;;16.80;99.90;;;;;;5087956;28;20023;-79
2022/09/21 12:29:35;;;;;;;0.63;0.00;;;17.50;99.90;;;;;;5062671;28;20078;-80
2022/09/21 12:32:18;;;;;;;1.55;0.10;;;17.50;99.90;;;;;;5060857;28;20025;-80
2022/09/21 12:34:50;;;;;;;2.05;0.10;;;16.80;99.90;;;;;;5074515;28;20409;-80
2022/09/21 12:37:53;;;;;;;1.95;0.10;;;17.50;99.90;;;;;;5057737;28;20407;-80
2022/09/21 12:40:26;;;;;;;1.55;0.00;;;18.00;99.90;;;;;;5053328;28;20016;-81
2022/09/21 12:43:15;;;;;;;1.15;0.03;;;18.30;99.90;;;;;;5066310;28;20054;-80
2022/09/21 12:45:46;;;;;;;0.45;0.03;;;18.50;99.90;;;;;;5064259;28;20036;-81
2022/09/21 12:48:12;;;;;;;1.35;0.00;;;18.90;99.90;;;;;;5057579;28;20392;-79
2022/09/21 12:50:43;;;;;;;0.70;0.08;;;18.90;99.90;;;;;;5058403;28;20032;-80
2022/09/21 12:53:17;;;;;;;1.48;0.08;;;18.50;99.90;;;;;;5070002;28;20020;-80
2022/09/21 12:55:44;;;;;;;0.93;0.10;;;17.90;99.90;;;;;;5057337;28;20031;-80
2022/09/21 12:58:35;;;;;;;0.95;0.10;;;18.00;99.90;;;;;;5076458;28;20096;-79
2022/09/21 13:01:33;;;;;;;1.00;0.20;;;17.90;99.90;;;;;;5075020;28;20028;-80
2022/09/21 13:04:17;;;;;;;1.13;0.00;;;17.90;99.90;;;;;;5040439;28;20040;-80
2022/09/21 13:06:52;;;;;;;0.47;0.00;;;18.10;99.90;;;;;;5059571;28;20039;-80
2022/09/21 13:09:20;;;;;;;1.75;0.08;;;18.40;99.90;;;;;;5065811;28;20040;-80
2022/09/21 13:12:13;;;;;;;4.05;0.10;;;18.20;99.90;;;;;;5062145;28;20082;-80
2022/09/21 13:14:47;;;;;;;0.50;0.00;;;18.40;99.90;;;;;;5089306;28;20032;-80
2022/09/21 13:17:28;;;;;;;1.10;0.08;;;18.60;99.90;;;;;;5049680;28;20028;-79
2022/09/21 13:20:19;;;;;;;0.77;0.10;;;18.60;99.90;;;;;;5067421;28;20032;-81
2022/09/21 13:22:47;;;;;;;0.45;0.00;;;18.70;99.90;;;;;;5069420;28;20020;-80
2022/09/21 13:25:26;;;;;;;1.58;0.10;;;18.70;99.90;;;;;;5064760;28;20036;-79